Time;durP1;ratioP1;P1;durP2;ratioP2;P2;SDS_P1;SDS_P2;PMS_P1;PMS_P2;Temp;Humidity;BMP_temperature;BMP_pressure;BME280_temperature;BME280_humidity;BME280_pressure;Samples;Min_cycle;Max_cycle;Signal;HPM_P1;HPM_P2
2021/09/03 00:00:10;;;;;;;9.20;8.32;;;;;;;18.14;68.74;101642.16;5068101;28;20103;-46
2021/09/03 00:02:36;;;;;;;8.57;7.78;;;;;;;18.14;68.81;101639.50;5038902;28;20573;-47
2021/09/03 00:05:02;;;;;;;9.27;8.02;;;;;;;18.13;68.83;101640.38;5068763;28;20020;-46
2021/09/03 00:07:28;;;;;;;9.00;8.20;;;;;;;18.13;68.79;101637.72;5057182;28;20082;-47
2021/09/03 00:09:53;;;;;;;10.45;7.85;;;;;;;18.11;68.70;101639.56;5071572;28;20025;-46
2021/09/03 00:12:18;;;;;;;8.25;7.45;;;;;;;18.10;68.63;101633.34;5071987;28;20028;-46
2021/09/03 00:14:44;;;;;;;8.98;8.07;;;;;;;18.10;68.73;101622.66;5073500;28;20021;-47
2021/09/03 00:17:09;;;;;;;9.38;8.30;;;;;;;18.09;68.88;101626.25;5054347;28;20070;-46
2021/09/03 00:19:34;;;;;;;9.15;8.25;;;;;;;18.08;68.67;101620.00;5069593;28;20461;-46
2021/09/03 00:22:00;;;;;;;9.30;8.50;;;;;;;18.07;68.63;101617.38;5066375;28;20024;-46
2021/09/03 00:24:25;;;;;;;8.63;7.43;;;;;;;18.07;68.86;101617.38;5071092;28;20048;-48
2021/09/03 00:26:50;;;;;;;10.25;8.45;;;;;;;18.07;68.79;101614.69;5054496;28;20020;-46
2021/09/03 00:29:16;;;;;;;8.55;7.72;;;;;;;18.07;68.84;101612.03;5070288;28;20073;-46
2021/09/03 00:31:41;;;;;;;8.88;8.15;;;;;;;18.05;68.75;101609.44;5069178;28;20021;-46
2021/09/03 00:34:07;;;;;;;7.85;7.10;;;;;;;18.05;68.63;101612.09;5055426;28;20420;-46
2021/09/03 00:36:32;;;;;;;8.70;7.90;;;;;;;18.04;68.57;101612.97;5073851;28;20020;-47
2021/09/03 00:39:00;;;;;;;9.32;8.43;;;;;;;18.04;68.74;101610.31;5074024;28;20025;-47
2021/09/03 00:41:26;;;;;;;9.40;8.50;;;;;;;18.03;68.53;101603.22;5070590;28;20020;-46
2021/09/03 00:43:51;;;;;;;9.55;8.55;;;;;;;18.03;68.61;101608.56;5071909;28;20447;-46
2021/09/03 00:46:28;;;;;;;9.13;8.32;;;;;;;18.02;68.48;101608.59;5074973;28;20024;-46
2021/09/03 00:48:54;;;;;;;8.65;7.80;;;;;;;18.01;68.62;101605.06;5075673;28;20028;-47
2021/09/03 00:51:19;;;;;;;10.32;7.95;;;;;;;18.02;68.53;101603.28;5073375;28;20056;-48
2021/09/03 00:53:45;;;;;;;8.93;8.07;;;;;;;18.01;68.46;101602.38;5069807;28;20086;-47
2021/09/03 00:56:10;;;;;;;8.65;7.85;;;;;;;17.99;68.50;101604.22;5071929;28;20436;-48
2021/09/03 00:58:35;;;;;;;9.38;8.48;;;;;;;17.99;68.86;101604.22;5055925;28;21159;-46
2021/09/03 01:01:01;;;;;;;7.88;7.18;;;;;;;17.99;68.51;101603.34;5074129;28;20059;-46
2021/09/03 01:03:26;;;;;;;8.60;7.80;;;;;;;17.98;68.60;101605.16;5050933;28;20070;-46
2021/09/03 01:05:52;;;;;;;8.57;7.78;;;;;;;17.98;68.46;101607.81;5075506;28;20567;-47
2021/09/03 01:08:17;;;;;;;7.78;7.07;;;;;;;17.97;68.47;101594.50;5055589;28;20107;-47
2021/09/03 01:10:46;;;;;;;10.63;7.05;;;;;;;17.96;68.48;101593.63;5078961;28;20012;-46
2021/09/03 01:13:11;;;;;;;7.82;6.95;;;;;;;17.96;68.66;101588.28;5056448;28;20032;-46
2021/09/03 01:15:39;;;;;;;8.20;7.40;;;;;;;17.95;68.50;101591.88;5070321;28;20038;-46
2021/09/03 01:18:10;;;;;;;8.13;7.43;;;;;;;17.94;68.45;101595.47;5069586;28;20039;-46
2021/09/03 01:20:36;;;;;;;8.07;7.35;;;;;;;17.93;68.51;101593.69;5071812;28;20021;-46
2021/09/03 01:23:10;;;;;;;8.23;7.38;;;;;;;17.93;68.32;101588.38;5072204;28;20036;-46
2021/09/03 01:25:35;;;;;;;8.27;7.55;;;;;;;17.93;68.27;101591.91;5062115;28;20028;-46
2021/09/03 01:28:01;;;;;;;8.05;7.30;;;;;;;17.93;68.58;101585.69;5070141;28;20490;-47
2021/09/03 01:30:26;;;;;;;7.75;7.07;;;;;;;17.92;68.56;101587.50;5059222;28;20019;-46
2021/09/03 01:32:51;;;;;;;7.85;7.15;;;;;;;17.92;68.39;101586.63;5075978;28;20025;-47
2021/09/03 01:35:20;;;;;;;8.07;7.38;;;;;;;17.91;68.47;101584.88;5068501;28;20390;-47
2021/09/03 01:37:45;;;;;;;7.75;7.05;;;;;;;17.90;68.52;101583.09;5059537;28;20021;-46
2021/09/03 01:40:13;;;;;;;7.85;6.93;;;;;;;17.89;68.57;101576.91;5055368;28;20071;-46
2021/09/03 01:42:40;;;;;;;7.57;6.88;;;;;;;17.89;68.48;101576.00;5071260;28;20051;-48
2021/09/03 01:45:06;;;;;;;8.07;7.28;;;;;;;17.89;68.33;101581.34;5076252;28;20031;-46
2021/09/03 01:47:31;;;;;;;7.00;6.40;;;;;;;17.88;68.43;101585.84;5073678;28;20109;-47
2021/09/03 01:49:56;;;;;;;7.47;6.88;;;;;;;17.88;68.38;101574.28;5074275;28;20032;-47
2021/09/03 01:52:22;;;;;;;7.05;6.45;;;;;;;17.86;68.43;101579.66;5072209;28;20064;-47
2021/09/03 01:54:48;;;;;;;7.22;6.63;;;;;;;17.85;68.26;101571.69;5069769;28;20398;-47
2021/09/03 01:57:13;;;;;;;7.32;6.55;;;;;;;17.85;68.31;101580.56;5076405;28;20049;-46
2021/09/03 01:59:39;;;;;;;7.25;6.55;;;;;;;17.85;68.43;101574.34;5075871;28;20025;-46
2021/09/03 02:02:04;;;;;;;7.25;6.47;;;;;;;17.82;68.42;101576.19;5071175;28;20020;-47
2021/09/03 02:04:29;;;;;;;6.65;6.05;;;;;;;17.83;68.30;101569.94;5068253;28;20052;-46
2021/09/03 02:06:57;;;;;;;6.45;5.82;;;;;;;17.82;68.44;101567.31;5074893;28;20053;-46
2021/09/03 02:09:23;;;;;;;5.88;5.38;;;;;;;17.82;68.31;101576.19;5072163;28;20127;-46
2021/09/03 02:11:48;;;;;;;6.85;6.25;;;;;;;17.82;68.26;101570.84;5074493;28;20087;-46
2021/09/03 02:14:14;;;;;;;6.53;5.93;;;;;;;17.81;68.37;101568.22;5051949;28;20428;-46
2021/09/03 02:16:42;;;;;;;5.82;5.32;;;;;;;17.78;68.39;101563.81;5060520;28;20035;-47
2021/09/03 02:19:07;;;;;;;6.00;5.47;;;;;;;17.79;68.43;101554.91;5071041;28;20020;-46
2021/09/03 02:21:33;;;;;;;6.60;6.00;;;;;;;17.79;68.48;101560.25;5070090;28;20482;-47
2021/09/03 02:23:58;;;;;;;6.25;5.75;;;;;;;17.79;68.42;101564.69;5074496;28;20367;-46
2021/09/03 02:26:23;;;;;;;6.10;5.60;;;;;;;17.76;68.28;101555.00;5082176;28;20470;-46
2021/09/03 02:28:49;;;;;;;6.15;5.65;;;;;;;17.75;68.40;101547.91;5072035;28;20057;-46
2021/09/03 02:31:14;;;;;;;6.57;6.07;;;;;;;17.75;68.59;101553.25;5060815;28;20028;-46
2021/09/03 02:33:39;;;;;;;6.45;5.85;;;;;;;17.75;68.55;101553.25;5072943;28;20094;-47
2021/09/03 02:36:05;;;;;;;6.40;5.90;;;;;;;17.74;68.58;101548.81;5069166;28;20570;-47
2021/09/03 02:38:30;;;;;;;6.20;5.70;;;;;;;17.74;68.64;101545.28;5079969;28;20477;-46
2021/09/03 02:40:55;;;;;;;6.53;5.93;;;;;;;17.74;68.91;101542.63;5074963;28;20089;-47
2021/09/03 02:43:21;;;;;;;6.13;5.60;;;;;;;17.73;68.49;101549.72;5073166;28;20034;-46
2021/09/03 02:45:46;;;;;;;6.40;5.90;;;;;;;17.72;68.54;101542.66;5076683;28;20024;-45
2021/09/03 02:48:11;;;;;;;6.13;5.63;;;;;;;17.71;68.52;101540.91;5081029;28;20492;-46
2021/09/03 02:50:37;;;;;;;6.32;5.78;;;;;;;17.70;68.55;101533.78;5044524;28;20127;-46
2021/09/03 02:53:02;;;;;;;5.88;5.38;;;;;;;17.69;68.55;101532.06;5080197;28;20020;-47
2021/09/03 02:55:30;;;;;;;6.28;5.78;;;;;;;17.69;68.62;101530.28;5074433;28;21025;-45
2021/09/03 02:57:56;;;;;;;5.60;5.20;;;;;;;17.68;68.60;101524.97;5074297;28;20079;-46
2021/09/03 03:00:21;;;;;;;6.38;5.78;;;;;;;17.68;68.76;101532.97;5073710;28;20497;-46
2021/09/03 03:02:47;;;;;;;6.40;5.90;;;;;;;17.68;68.73;101528.50;5061757;28;20032;-46
2021/09/03 03:05:12;;;;;;;6.38;5.80;;;;;;;17.67;68.77;101533.88;5058680;28;20028;-47
2021/09/03 03:07:38;;;;;;;5.63;5.20;;;;;;;17.67;68.62;101517.84;5063725;28;20458;-46
2021/09/03 03:10:07;;;;;;;5.95;5.45;;;;;;;17.65;68.61;101517.03;5073718;28;20493;-46
2021/09/03 03:12:33;;;;;;;6.10;5.60;;;;;;;17.65;68.61;101519.72;5073320;28;20084;-46
2021/09/03 03:14:59;;;;;;;5.28;4.88;;;;;;;17.64;68.87;101515.28;5071311;28;20513;-46
2021/09/03 03:17:26;;;;;;;6.10;5.57;;;;;;;17.63;68.73;101517.06;5073601;28;20024;-48
2021/09/03 03:19:51;;;;;;;6.05;5.55;;;;;;;17.62;68.95;101515.34;5069010;28;20032;-48
2021/09/03 03:22:17;;;;;;;6.25;5.75;;;;;;;17.63;68.76;101518.84;5070459;28;20028;-48
2021/09/03 03:24:42;;;;;;;5.68;5.28;;;;;;;17.62;68.87;101514.44;5077415;28;20047;-48
2021/09/03 03:27:08;;;;;;;5.05;4.65;;;;;;;17.61;68.76;101512.69;5079354;28;20069;-48
2021/09/03 03:29:33;;;;;;;6.22;5.72;;;;;;;17.60;68.95;101508.28;5070043;28;20024;-48
2021/09/03 03:31:58;;;;;;;6.18;5.68;;;;;;;17.59;68.82;101511.84;5058808;28;20023;-48
2021/09/03 03:34:24;;;;;;;5.50;5.10;;;;;;;17.59;69.02;101501.19;5078309;28;20028;-47
2021/09/03 03:36:49;;;;;;;6.75;6.22;;;;;;;17.57;68.95;101496.78;5075752;28;20028;-48
2021/09/03 03:39:14;;;;;;;6.20;5.70;;;;;;;17.56;68.90;101487.03;5067987;28;20649;-47
2021/09/03 03:41:40;;;;;;;6.43;5.93;;;;;;;17.56;68.99;101500.34;5071702;28;20028;-48
2021/09/03 03:44:06;;;;;;;6.00;5.50;;;;;;;17.56;68.65;101494.13;5070781;28;20051;-48
2021/09/03 03:46:32;;;;;;;5.95;5.50;;;;;;;17.54;68.90;101486.19;5071610;28;20036;-48
2021/09/03 03:48:57;;;;;;;5.75;5.30;;;;;;;17.54;68.90;101485.31;5073399;28;20112;-48
2021/09/03 03:51:23;;;;;;;5.60;5.20;;;;;;;17.53;68.92;101487.09;5063587;28;20405;-48
2021/09/03 03:53:48;;;;;;;5.80;5.38;;;;;;;17.53;68.86;101481.75;5073436;28;20040;-48
2021/09/03 03:56:14;;;;;;;6.00;5.50;;;;;;;17.52;68.77;101488.03;5072863;28;20393;-48
2021/09/03 03:58:39;;;;;;;6.38;5.88;;;;;;;17.50;68.86;101478.31;5075545;28;20063;-47
2021/09/03 04:01:04;;;;;;;5.60;5.20;;;;;;;17.50;69.00;101484.50;5068842;28;20051;-48
2021/09/03 04:03:30;;;;;;;5.25;4.85;;;;;;;17.49;69.10;101472.09;5068449;28;20110;-47
2021/09/03 04:05:55;;;;;;;4.95;4.55;;;;;;;17.48;69.05;101475.69;5063949;28;20075;-48
2021/09/03 04:08:20;;;;;;;4.95;4.65;;;;;;;17.48;69.12;101475.69;5077201;28;20069;-48
2021/09/03 04:10:46;;;;;;;5.43;5.03;;;;;;;17.47;69.31;101479.25;5070190;28;20594;-47
2021/09/03 04:13:11;;;;;;;5.53;5.05;;;;;;;17.47;69.13;101473.91;5077205;28;20035;-48
2021/09/03 04:15:36;;;;;;;5.70;5.28;;;;;;;17.45;69.32;101475.75;5070118;28;20172;-47
2021/09/03 04:18:02;;;;;;;5.43;5.03;;;;;;;17.46;69.13;101471.28;5061566;28;20606;-47
2021/09/03 04:20:27;;;;;;;5.97;5.45;;;;;;;17.43;69.19;101478.47;5045314;28;20124;-48
2021/09/03 04:22:52;;;;;;;5.80;5.40;;;;;;;17.43;69.31;101480.22;5082256;28;20046;-48
2021/09/03 04:25:18;;;;;;;5.75;5.35;;;;;;;17.42;69.22;101470.50;5078586;28;20145;-47
2021/09/03 04:27:43;;;;;;;5.40;5.00;;;;;;;17.40;69.07;101466.97;5076620;28;20021;-48
2021/09/03 04:30:10;;;;;;;5.78;5.32;;;;;;;17.41;69.41;101468.75;5073794;28;20021;-48
2021/09/03 04:32:36;;;;;;;5.55;5.15;;;;;;;17.41;69.13;101468.75;5059352;28;20120;-47
2021/09/03 04:35:02;;;;;;;5.63;5.13;;;;;;;17.39;68.99;101474.13;5074501;28;20047;-48
2021/09/03 04:37:27;;;;;;;5.70;5.30;;;;;;;17.39;69.10;101470.56;5078884;28;20016;-48
2021/09/03 04:39:52;;;;;;;5.43;5.03;;;;;;;17.38;69.19;101472.38;5079596;28;20442;-48
2021/09/03 04:42:17;;;;;;;5.88;5.38;;;;;;;17.37;69.12;101467.06;5080970;28;20027;-48
2021/09/03 04:44:43;;;;;;;6.10;5.68;;;;;;;17.37;69.28;101467.06;5075800;28;20020;-48
2021/09/03 04:47:08;;;;;;;5.65;5.15;;;;;;;17.35;69.21;101471.56;5079426;28;20020;-48
2021/09/03 04:49:33;;;;;;;6.20;5.70;;;;;;;17.35;69.08;101463.56;5080400;28;20032;-48
2021/09/03 04:51:59;;;;;;;5.55;5.15;;;;;;;17.34;69.15;101464.47;5076557;28;20016;-47
2021/09/03 04:54:24;;;;;;;6.07;5.57;;;;;;;17.34;68.98;101461.81;5078448;28;20048;-48
2021/09/03 04:56:49;;;;;;;5.75;5.25;;;;;;;17.33;69.16;101460.06;5077967;28;20456;-48
2021/09/03 04:59:14;;;;;;;6.30;5.78;;;;;;;17.33;69.32;101465.41;5071238;28;20473;-48
2021/09/03 05:01:40;;;;;;;5.65;5.25;;;;;;;17.31;69.10;101457.44;5075558;28;20028;-48
2021/09/03 05:04:05;;;;;;;5.57;5.18;;;;;;;17.29;69.08;101462.81;5069654;28;20082;-48
2021/09/03 05:06:30;;;;;;;6.00;5.53;;;;;;;17.30;69.10;101464.56;5075196;28;21731;-48
2021/09/03 05:08:56;;;;;;;5.60;5.13;;;;;;;17.29;69.12;101457.47;5073258;28;20017;-47
2021/09/03 05:11:21;;;;;;;5.60;5.20;;;;;;;17.30;69.07;101455.66;5074208;28;20060;-48
2021/09/03 05:13:46;;;;;;;5.78;5.28;;;;;;;17.29;69.16;101460.16;5053961;28;20497;-48
2021/09/03 05:16:12;;;;;;;6.22;5.68;;;;;;;17.28;69.07;101455.69;5079334;28;20027;-48
2021/09/03 05:18:37;;;;;;;5.57;5.07;;;;;;;17.28;69.10;101450.38;5073945;28;20437;-48
2021/09/03 05:21:03;;;;;;;5.78;5.28;;;;;;;17.28;69.16;101457.50;5078390;28;20027;-48
2021/09/03 05:23:28;;;;;;;6.00;5.50;;;;;;;17.27;69.27;101453.09;5079904;28;20165;-47
2021/09/03 05:25:53;;;;;;;5.75;5.35;;;;;;;17.26;68.99;101448.66;5072432;28;20032;-47
2021/09/03 05:28:19;;;;;;;5.65;5.15;;;;;;;17.26;69.17;101446.88;5080492;28;20025;-48
2021/09/03 05:30:44;;;;;;;5.45;5.00;;;;;;;17.25;68.95;101452.25;5064212;28;20035;-48
2021/09/03 05:33:09;;;;;;;4.78;4.47;;;;;;;17.23;69.18;101444.28;5076302;28;20476;-48
2021/09/03 05:35:35;;;;;;;5.47;5.07;;;;;;;17.24;69.07;101446.03;5083173;28;20035;-47
2021/09/03 05:38:06;;;;;;;5.22;4.82;;;;;;;17.24;68.96;101450.50;5081339;28;20067;-48
2021/09/03 05:40:32;;;;;;;5.45;4.95;;;;;;;17.21;68.92;101446.13;5077653;28;20056;-48
2021/09/03 05:42:58;;;;;;;4.63;4.22;;;;;;;17.22;69.11;101447.88;5069963;28;20700;-48
2021/09/03 05:45:23;;;;;;;5.85;5.45;;;;;;;17.21;69.06;101434.59;5066913;28;20031;-48
2021/09/03 05:47:48;;;;;;;5.45;5.03;;;;;;;17.21;69.05;101448.81;5075682;28;20028;-48
2021/09/03 05:50:15;;;;;;;5.15;4.75;;;;;;;17.20;68.94;101451.50;5077882;28;20032;-48
2021/09/03 05:52:41;;;;;;;4.88;4.47;;;;;;;17.20;69.03;101449.69;5065839;28;20021;-48
2021/09/03 05:55:07;;;;;;;5.55;5.15;;;;;;;17.18;68.90;101451.53;5072719;28;20046;-48
2021/09/03 05:57:32;;;;;;;4.60;4.30;;;;;;;17.19;68.95;101450.63;5070644;28;20032;-48
2021/09/03 05:59:59;;;;;;;4.82;4.43;;;;;;;17.17;68.96;101449.75;5055768;28;20171;-48
2021/09/03 06:02:24;;;;;;;4.90;4.60;;;;;;;17.16;69.02;101440.91;5070949;28;20023;-48
2021/09/03 06:04:49;;;;;;;4.65;4.32;;;;;;;17.17;69.00;101447.09;5065714;28;20029;-48
2021/09/03 06:07:15;;;;;;;4.45;4.15;;;;;;;17.17;69.01;101444.44;5066324;28;20024;-48
2021/09/03 06:09:40;;;;;;;5.35;4.93;;;;;;;17.17;68.89;101442.66;5058420;28;20033;-48
2021/09/03 06:12:06;;;;;;;4.97;4.47;;;;;;;17.17;68.72;101439.97;5076610;28;20548;-48
2021/09/03 06:14:31;;;;;;;5.13;4.72;;;;;;;17.17;68.70;101439.09;5074997;28;20052;-47
2021/09/03 06:16:56;;;;;;;4.20;3.90;;;;;;;17.16;68.70;101434.69;5075800;28;20047;-48
2021/09/03 06:19:22;;;;;;;4.95;4.55;;;;;;;17.16;68.54;101435.56;5075004;28;20104;-48
2021/09/03 06:21:47;;;;;;;4.78;4.38;;;;;;;17.17;68.56;101434.66;5072647;28;20020;-48
2021/09/03 06:24:28;;;;;;;4.47;4.18;;;;;;;17.16;68.85;101437.34;5081257;28;20047;-48
2021/09/03 06:26:55;;;;;;;5.07;4.68;;;;;;;17.14;69.10;101439.19;5073279;28;20428;-48
2021/09/03 06:29:42;;;;;;;4.32;4.03;;;;;;;17.13;68.98;101440.97;5058534;28;20036;-48
2021/09/03 06:32:22;;;;;;;5.25;4.85;;;;;;;17.14;68.96;101437.38;5079762;28;20059;-47
2021/09/03 06:34:52;;;;;;;5.63;5.22;;;;;;;17.14;69.02;101444.53;5071365;28;20116;-48
2021/09/03 06:37:20;;;;;;;4.72;4.43;;;;;;;17.10;69.08;101438.38;5081622;28;20043;-48
2021/09/03 06:39:46;;;;;;;4.60;4.25;;;;;;;17.10;69.13;101438.38;5075573;28;20386;-48
2021/09/03 06:42:11;;;;;;;5.15;4.55;;;;;;;17.11;68.92;101436.59;5077233;28;20029;-48
2021/09/03 06:44:37;;;;;;;5.03;4.63;;;;;;;17.09;69.09;101431.31;5060864;28;20111;-48
2021/09/03 06:47:04;;;;;;;4.72;4.32;;;;;;;17.10;68.99;101434.88;5078805;28;20478;-48
2021/09/03 06:49:30;;;;;;;5.10;4.70;;;;;;;17.09;69.09;101438.41;5076443;28;20154;-48
2021/09/03 06:51:55;;;;;;;4.57;4.18;;;;;;;17.10;69.20;101426.88;5076922;28;20481;-48
2021/09/03 06:54:21;;;;;;;4.72;3.95;;;;;;;17.08;69.19;101432.22;5069023;28;20020;-47
2021/09/03 07:00:09;;;;;;;5.32;4.93;;;;;;;17.09;69.30;101423.31;5070331;28;20505;-48
2021/09/03 07:02:35;;;;;;;5.18;4.25;;;;;;;17.08;69.02;101423.34;5076780;28;20044;-48
2021/09/03 07:05:00;;;;;;;5.63;5.22;;;;;;;17.10;69.12;101421.53;5073983;28;20185;-47
2021/09/03 07:07:26;;;;;;;5.28;4.88;;;;;;;17.07;69.40;101417.13;5073281;28;20032;-48
2021/09/03 07:09:53;;;;;;;5.03;4.63;;;;;;;17.09;69.02;101419.75;5075830;28;20029;-48
2021/09/03 07:12:18;;;;;;;5.22;4.75;;;;;;;17.08;69.23;101418.03;5074340;28;20024;-48
2021/09/03 07:14:44;;;;;;;5.43;4.97;;;;;;;17.07;69.14;101422.47;5076094;28;20394;-47
2021/09/03 07:17:10;;;;;;;4.65;4.35;;;;;;;17.07;69.24;101414.47;5071912;28;20410;-48
2021/09/03 07:19:35;;;;;;;6.13;5.60;;;;;;;17.07;69.07;101410.94;5074476;28;20429;-48
2021/09/03 07:22:03;;;;;;;5.90;5.40;;;;;;;17.04;69.32;101401.22;5077077;28;20051;-48
2021/09/03 07:24:29;;;;;;;5.18;4.78;;;;;;;17.05;69.32;101409.16;5078009;28;20436;-48
2021/09/03 07:26:54;;;;;;;6.40;5.55;;;;;;;17.07;69.33;101416.28;5074060;28;20119;-48
2021/09/03 07:29:20;;;;;;;6.00;5.50;;;;;;;17.05;69.35;101409.16;5066522;28;20023;-48
2021/09/03 07:31:45;;;;;;;6.78;5.78;;;;;;;17.05;69.24;101395.84;5068796;28;20401;-48
2021/09/03 07:34:10;;;;;;;6.30;5.60;;;;;;;17.06;69.45;101399.41;5071895;28;20020;-48
2021/09/03 07:36:36;;;;;;;5.47;4.97;;;;;;;17.04;69.31;101396.72;5070308;28;20043;-48
2021/09/03 07:39:03;;;;;;;6.78;6.18;;;;;;;17.04;69.43;101402.06;5065290;28;20033;-48
2021/09/03 07:41:28;;;;;;;6.15;5.55;;;;;;;17.03;69.42;101402.09;5075192;28;20044;-48
2021/09/03 07:43:53;;;;;;;6.35;5.75;;;;;;;17.04;69.38;101395.88;5072252;28;20501;-47
2021/09/03 07:46:19;;;;;;;7.00;6.30;;;;;;;17.03;69.30;101395.00;5075310;28;20028;-48
2021/09/03 07:48:44;;;;;;;7.43;6.75;;;;;;;17.01;69.42;101398.63;5070229;28;20020;-48
2021/09/03 07:51:09;;;;;;;6.50;5.85;;;;;;;17.04;69.44;101391.41;5067848;28;20425;-48
2021/09/03 07:53:35;;;;;;;6.95;6.35;;;;;;;17.03;69.35;101379.00;5072213;28;20024;-48
2021/09/03 07:56:00;;;;;;;6.68;6.07;;;;;;;17.03;69.39;101386.13;5082751;28;20032;-48
2021/09/03 07:58:25;;;;;;;6.97;6.28;;;;;;;17.02;69.37;101373.72;5080344;28;20032;-48
2021/09/03 08:00:51;;;;;;;6.75;6.05;;;;;;;17.02;69.52;101377.25;5073562;28;20032;-48
2021/09/03 08:03:16;;;;;;;6.55;5.95;;;;;;;17.02;69.43;101377.25;5069689;28;20131;-47
2021/09/03 08:05:41;;;;;;;9.80;7.70;;;;;;;17.14;70.22;101385.91;5073217;28;20028;-48
2021/09/03 08:08:07;;;;;;;17.55;10.60;;;;;;;17.27;70.74;101386.47;5056621;28;20028;-49
2021/09/03 08:10:34;;;;;;;18.67;14.68;;;;;;;17.35;74.11;101380.91;5053278;28;20447;-48
2021/09/03 08:13:03;;;;;;;20.42;15.80;;;;;;;17.36;75.40;101380.88;5057119;28;20359;-48
2021/09/03 08:15:30;;;;;;;21.48;16.52;;;;;;;17.45;74.74;101379.75;5051755;28;20024;-49
2021/09/03 08:17:56;;;;;;;20.35;17.73;;;;;;;17.53;76.77;101383.09;5071365;28;20024;-48
2021/09/03 08:20:22;;;;;;;21.98;18.48;;;;;;;17.57;75.63;101379.41;5070984;28;20024;-48
2021/09/03 08:22:48;;;;;;;27.67;24.23;;;;;;;17.61;74.80;101385.53;5066644;28;20046;-49
2021/09/03 08:25:15;;;;;;;31.33;22.75;;;;;;;17.66;74.86;101377.41;5071401;28;20025;-48
2021/09/03 08:27:40;;;;;;;29.27;23.08;;;;;;;17.71;77.10;101375.50;5054713;28;20486;-48
2021/09/03 08:30:06;;;;;;;26.00;21.50;;;;;;;17.73;75.15;101373.66;5068853;28;20025;-48
2021/09/03 08:32:32;;;;;;;87.57;75.85;;;;;;;17.78;75.13;101365.53;5069897;28;20027;-47
2021/09/03 08:34:59;;;;;;;63.75;56.80;;;;;;;17.85;75.25;101367.13;5068725;28;20020;-48
2021/09/03 08:37:25;;;;;;;40.70;36.25;;;;;;;17.89;75.53;101367.88;5073207;28;20096;-48
2021/09/03 08:39:51;;;;;;;31.73;26.95;;;;;;;17.92;75.51;101365.13;5057222;28;20027;-48
2021/09/03 08:42:17;;;;;;;30.02;22.25;;;;;;;17.93;75.90;101365.09;5070881;28;20027;-48
2021/09/03 08:44:44;;;;;;;29.58;20.70;;;;;;;18.02;75.76;101373.75;5071989;28;20410;-48
2021/09/03 08:47:12;;;;;;;25.55;19.85;;;;;;;18.05;76.64;101366.53;5072081;28;20028;-48
2021/09/03 08:49:38;;;;;;;24.35;19.20;;;;;;;18.08;76.35;101363.75;5072250;28;20020;-48
2021/09/03 08:52:04;;;;;;;24.63;19.15;;;;;;;18.12;76.01;101366.38;5055018;28;20020;-48
2021/09/03 08:54:30;;;;;;;22.50;18.67;;;;;;;18.13;75.87;101362.78;5073724;28;20024;-48
2021/09/03 08:56:55;;;;;;;25.65;18.80;;;;;;;18.08;76.07;101368.25;5070715;28;20017;-48
2021/09/03 08:59:21;;;;;;;22.13;18.05;;;;;;;18.17;75.74;101359.13;5075383;28;20016;-48
2021/09/03 09:02:09;;;;;;;24.23;18.98;;;;;;;18.18;74.89;101359.03;5069826;28;20033;-48
2021/09/03 09:04:39;;;;;;;25.08;19.92;;;;;;;18.24;76.06;101357.13;5076445;28;20104;-48
2021/09/03 09:07:06;;;;;;;21.88;18.73;;;;;;;18.29;76.17;101360.53;5075377;28;20029;-48
2021/09/03 09:09:32;;;;;;;23.20;18.85;;;;;;;18.29;76.42;101364.06;5059464;28;20494;-48
2021/09/03 09:12:06;;;;;;;20.08;17.15;;;;;;;18.29;75.90;101358.72;5075895;28;20194;-48
2021/09/03 09:15:01;;;;;;;19.92;16.27;;;;;;;18.34;74.69;101354.13;5073373;28;20040;-48
2021/09/03 09:17:41;;;;;;;21.38;16.08;;;;;;;18.40;76.31;101352.16;5070188;28;20028;-48
2021/09/03 09:20:12;;;;;;;18.85;15.48;;;;;;;18.45;76.70;101353.78;5056667;28;20028;-48
2021/09/03 09:22:57;;;;;;;18.80;16.02;;;;;;;18.48;75.16;101350.16;5057503;28;20051;-48
2021/09/03 09:25:25;;;;;;;15.93;13.32;;;;;;;18.48;75.72;101349.28;5070810;28;20029;-48
2021/09/03 09:27:51;;;;;;;23.02;14.25;;;;;;;18.50;74.68;101348.28;5074166;28;20025;-48
2021/09/03 09:30:27;;;;;;;17.02;13.45;;;;;;;18.55;75.03;101346.38;5061856;28;20126;-48
2021/09/03 09:33:16;;;;;;;16.75;14.27;;;;;;;18.57;74.67;101344.50;5061434;28;20064;-48
2021/09/03 09:35:44;;;;;;;20.23;14.15;;;;;;;18.64;75.61;101334.47;5058433;28;20020;-48
2021/09/03 09:38:09;;;;;;;21.10;15.05;;;;;;;18.65;74.95;101344.28;5073071;28;20028;-48
2021/09/03 09:41:09;;;;;;;20.02;16.13;;;;;;;18.68;73.93;101336.13;5069559;28;20108;-48
2021/09/03 09:43:35;;;;;;;22.85;15.93;;;;;;;18.77;75.06;101334.09;5065255;28;20035;-48
2021/09/03 09:46:07;;;;;;;20.92;15.75;;;;;;;18.86;75.70;101339.13;5071661;28;20040;-47
2021/09/03 09:48:35;;;;;;;22.10;16.38;;;;;;;18.84;75.76;101323.16;5071291;28;20111;-48
2021/09/03 09:51:01;;;;;;;18.65;14.38;;;;;;;18.83;75.22;101324.06;5069629;22;20182;-48
2021/09/03 09:53:27;;;;;;;19.50;15.68;;;;;;;18.77;75.26;101320.75;5096475;22;20154;-53
2021/09/03 09:55:52;;;;;;;17.63;14.20;;;;;;;18.69;74.95;101316.53;5086006;28;20056;-56
2021/09/03 09:58:20;;;;;;;16.55;14.45;;;;;;;18.64;74.77;101321.13;5086108;28;20446;-54
2021/09/03 10:00:46;;;;;;;15.57;13.30;;;;;;;18.59;74.51;101328.44;5069888;28;20102;-52
2021/09/03 10:03:12;;;;;;;16.88;13.45;;;;;;;18.53;73.69;101326.84;5066574;28;20449;-53
2021/09/03 10:05:38;;;;;;;15.70;12.32;;;;;;;18.51;74.21;101328.66;5073096;28;20028;-53
2021/09/03 10:08:04;;;;;;;14.23;12.73;;;;;;;18.49;73.53;101314.50;5082551;28;20055;-52
2021/09/03 10:10:30;;;;;;;14.73;13.27;;;;;;;18.44;73.41;101316.47;5080417;28;20013;-53
2021/09/03 10:12:56;;;;;;;14.57;12.75;;;;;;;18.43;72.82;101314.69;5086292;28;20024;-54
2021/09/03 10:15:22;;;;;;;15.57;13.30;;;;;;;18.39;72.66;101310.38;5064457;28;20493;-53
2021/09/03 10:17:47;;;;;;;14.45;12.38;;;;;;;18.39;72.97;101315.72;5069311;28;20028;-54
2021/09/03 10:20:13;;;;;;;15.18;13.57;;;;;;;18.34;72.98;101306.06;5067113;28;20023;-55
2021/09/03 10:22:46;;;;;;;15.25;13.30;;;;;;;18.31;73.16;101306.16;5053095;28;20147;-52
2021/09/03 10:25:12;;;;;;;14.98;12.07;;;;;;;18.33;72.67;101306.09;5080332;28;20028;-51
2021/09/03 10:27:39;;;;;;;17.65;12.65;;;;;;;18.31;72.80;101300.81;5083525;28;20036;-53
2021/09/03 10:30:19;;;;;;;13.68;12.00;;;;;;;18.30;72.69;101300.84;5057336;28;20031;-53
2021/09/03 10:32:45;;;;;;;13.20;11.88;;;;;;;18.28;72.75;101300.91;5080415;28;20028;-53
2021/09/03 10:35:21;;;;;;;13.57;11.85;;;;;;;18.24;72.89;101299.25;5081085;28;20028;-54
2021/09/03 10:37:47;;;;;;;12.77;11.50;;;;;;;18.25;72.87;101290.34;5083203;28;20080;-53
2021/09/03 10:40:21;;;;;;;13.70;12.25;;;;;;;18.25;72.53;101284.13;5082899;28;20397;-53
2021/09/03 10:42:51;;;;;;;13.77;12.13;;;;;;;18.23;72.61;101280.63;5083504;28;20055;-54
2021/09/03 10:45:28;;;;;;;13.50;12.10;;;;;;;18.18;72.70;101284.28;5066718;28;20027;-53
2021/09/03 10:51:35;;;;;;;12.40;11.10;;;;;;;18.16;72.71;101277.25;5086245;28;20036;-53
2021/09/03 10:54:21;;;;;;;15.70;11.80;;;;;;;18.18;72.64;101267.44;5063257;28;20064;-53
2021/09/03 10:56:55;;;;;;;14.00;12.57;;;;;;;18.18;72.65;101276.28;5082090;28;20058;-53
2021/09/03 10:59:20;;;;;;;12.88;11.57;;;;;;;18.16;72.63;101264.81;5082305;28;20065;-53
2021/09/03 11:01:51;;;;;;;13.82;12.43;;;;;;;18.15;72.53;101255.06;5086678;28;20024;-54
2021/09/03 11:04:19;;;;;;;13.68;12.32;;;;;;;18.16;72.37;101255.91;5076168;28;20077;-53
2021/09/03 11:06:53;;;;;;;13.38;11.98;;;;;;;18.17;72.30;101255.00;5085546;28;20026;-54
2021/09/03 11:09:28;;;;;;;13.18;11.80;;;;;;;18.16;72.45;101258.56;5084756;28;20322;-54
2021/09/03 11:12:05;;;;;;;13.40;12.10;;;;;;;18.17;72.01;101258.53;5070666;28;20034;-55
2021/09/03 11:14:32;;;;;;;14.57;11.50;;;;;;;18.16;72.38;101254.13;5068194;28;20029;-54
2021/09/03 11:17:03;;;;;;;15.25;12.90;;;;;;;18.16;72.31;101254.13;5080804;28;20111;-54
2021/09/03 11:19:32;;;;;;;;;;;;;;;18.18;72.13;101248.75;5071413;28;20054;-54
2021/09/03 11:25:19;;;;;;;13.40;12.10;;;;;;;18.14;72.15;101250.63;5086843;28;20067;-54
2021/09/03 11:27:46;;;;;;;16.83;13.20;;;;;;;18.12;72.33;101251.59;5081607;28;20052;-54
2021/09/03 11:30:18;;;;;;;14.60;12.60;;;;;;;18.14;72.35;101255.09;5081893;28;20024;-53